sensor_id;sensor_type;location;lat;lon;timestamp;pressure;altitude;pressure_sealevel;temperature;humidity
48386;BME280;34644;47.964;7.982;2024-02-26T00:00:13;94693.66;;;17.14;54.32
48386;BME280;34644;47.964;7.982;2024-02-26T00:07:14;94689.88;;;17.15;54.24
48386;BME280;34644;47.964;7.982;2024-02-26T00:14:14;94691.00;;;17.14;54.34
48386;BME280;34644;47.964;7.982;2024-02-26T00:21:14;94697.53;;;17.17;54.30
48386;BME280;34644;47.964;7.982;2024-02-26T00:28:15;94688.78;;;17.16;54.30
48386;BME280;34644;47.964;7.982;2024-02-26T00:35:15;94691.13;;;17.18;54.40
48386;BME280;34644;47.964;7.982;2024-02-26T00:42:16;94679.38;;;17.19;54.39
48386;BME280;34644;47.964;7.982;2024-02-26T00:49:19;94678.25;;;17.20;54.50
48386;BME280;34644;47.964;7.982;2024-02-26T00:56:19;94679.06;;;17.21;54.49
48386;BME280;34644;47.964;7.982;2024-02-26T01:03:19;94689.38;;;17.22;54.52
48386;BME280;34644;47.964;7.982;2024-02-26T01:10:20;94658.22;;;17.23;54.53
48386;BME280;34644;47.964;7.982;2024-02-26T01:17:20;94668.09;;;17.22;54.52
48386;BME280;34644;47.964;7.982;2024-02-26T01:24:20;94680.28;;;17.23;54.52
48386;BME280;34644;47.964;7.982;2024-02-26T01:31:20;94664.31;;;17.23;54.66
48386;BME280;34644;47.964;7.982;2024-02-26T01:38:21;94665.88;;;17.24;54.57
48386;BME280;34644;47.964;7.982;2024-02-26T01:45:21;94670.88;;;17.26;54.54
48386;BME280;34644;47.964;7.982;2024-02-26T01:52:24;94669.00;;;17.26;54.63
48386;BME280;34644;47.964;7.982;2024-02-26T01:59:24;94676.53;;;17.24;54.61
48386;BME280;34644;47.964;7.982;2024-02-26T02:06:25;94674.31;;;17.26;54.83
48386;BME280;34644;47.964;7.982;2024-02-26T02:13:25;94685.75;;;17.27;54.55
48386;BME280;34644;47.964;7.982;2024-02-26T02:20:35;94690.72;;;17.28;54.57
48386;BME280;34644;47.964;7.982;2024-02-26T02:27:35;94684.97;;;17.26;54.66
48386;BME280;34644;47.964;7.982;2024-02-26T02:34:36;94682.75;;;17.28;54.57
48386;BME280;34644;47.964;7.982;2024-02-26T02:41:36;94663.66;;;17.26;54.67
48386;BME280;34644;47.964;7.982;2024-02-26T02:48:36;94664.13;;;17.28;54.84
48386;BME280;34644;47.964;7.982;2024-02-26T02:55:36;94664.13;;;17.28;54.77
48386;BME280;34644;47.964;7.982;2024-02-26T03:02:37;94659.28;;;17.30;54.53
48386;BME280;34644;47.964;7.982;2024-02-26T03:09:37;94649.72;;;17.29;54.80
48386;BME280;34644;47.964;7.982;2024-02-26T03:16:37;94655.81;;;17.30;54.72
48386;BME280;34644;47.964;7.982;2024-02-26T03:23:37;94660.81;;;17.31;54.95
48386;BME280;34644;47.964;7.982;2024-02-26T03:30:38;94675.25;;;17.30;54.74
48386;BME280;34644;47.964;7.982;2024-02-26T03:37:38;94674.59;;;17.33;54.90
48386;BME280;34644;47.964;7.982;2024-02-26T03:44:39;94670.38;;;17.32;55.06
48386;BME280;34644;47.964;7.982;2024-02-26T03:51:39;94679.13;;;17.33;54.81
48386;BME280;34644;47.964;7.982;2024-02-26T03:58:39;94685.25;;;17.33;54.75
48386;BME280;34644;47.964;7.982;2024-02-26T04:05:40;94688.34;;;17.35;55.04
48386;BME280;34644;47.964;7.982;2024-02-26T04:12:40;94680.38;;;17.35;54.62
48386;BME280;34644;47.964;7.982;2024-02-26T04:19:41;94697.59;;;17.38;54.83
48386;BME280;34644;47.964;7.982;2024-02-26T04:26:42;94678.47;;;17.36;55.01
48386;BME280;34644;47.964;7.982;2024-02-26T04:33:42;94698.38;;;17.39;54.67
48386;BME280;34644;47.964;7.982;2024-02-26T04:40:42;94704.00;;;17.37;54.84
48386;BME280;34644;47.964;7.982;2024-02-26T04:47:42;94713.72;;;17.33;54.94
48386;BME280;34644;47.964;7.982;2024-02-26T04:54:43;94724.63;;;17.19;55.36
48386;BME280;34644;47.964;7.982;2024-02-26T05:01:43;94715.28;;;17.13;55.71
48386;BME280;34644;47.964;7.982;2024-02-26T05:08:43;94713.56;;;17.08;55.87
48386;BME280;34644;47.964;7.982;2024-02-26T05:15:44;94724.53;;;17.07;55.99
48386;BME280;34644;47.964;7.982;2024-02-26T05:22:46;94722.97;;;17.06;56.08
48386;BME280;34644;47.964;7.982;2024-02-26T05:29:48;94723.28;;;17.04;56.17
48386;BME280;34644;47.964;7.982;2024-02-26T05:36:48;94725.19;;;17.04;56.37
48386;BME280;34644;47.964;7.982;2024-02-26T05:43:49;94728.16;;;17.02;56.65
48386;BME280;34644;47.964;7.982;2024-02-26T05:50:49;94739.13;;;17.00;56.89
48386;BME280;34644;47.964;7.982;2024-02-26T05:57:50;94747.56;;;17.03;57.39
48386;BME280;34644;47.964;7.982;2024-02-26T06:04:50;94742.22;;;17.03;57.20
48386;BME280;34644;47.964;7.982;2024-02-26T06:11:50;94741.13;;;17.04;57.24
48386;BME280;34644;47.964;7.982;2024-02-26T06:18:51;94742.72;;;17.05;57.18
48386;BME280;34644;47.964;7.982;2024-02-26T06:25:52;94743.47;;;17.05;56.92
48386;BME280;34644;47.964;7.982;2024-02-26T06:32:52;94746.59;;;17.07;57.00
48386;BME280;34644;47.964;7.982;2024-02-26T06:39:52;94751.91;;;17.07;56.82
48386;BME280;34644;47.964;7.982;2024-02-26T06:46:52;94758.00;;;17.08;56.90
48386;BME280;34644;47.964;7.982;2024-02-26T06:53:53;94768.66;;;17.08;56.67
48386;BME280;34644;47.964;7.982;2024-02-26T07:00:53;94753.81;;;17.07;56.80
48386;BME280;34644;47.964;7.982;2024-02-26T07:07:53;94734.06;;;17.08;56.72
48386;BME280;34644;47.964;7.982;2024-02-26T07:14:53;94749.25;;;17.07;56.76
48386;BME280;34644;47.964;7.982;2024-02-26T07:21:54;94751.91;;;17.07;56.75
48386;BME280;34644;47.964;7.982;2024-02-26T07:28:55;94756.03;;;17.05;56.81
48386;BME280;34644;47.964;7.982;2024-02-26T07:35:55;94764.00;;;17.05;56.99
48386;BME280;34644;47.964;7.982;2024-02-26T07:42:56;94762.13;;;17.05;56.89
48386;BME280;34644;47.964;7.982;2024-02-26T07:49:56;94751.78;;;17.04;56.93
48386;BME280;34644;47.964;7.982;2024-02-26T07:56:57;94771.19;;;17.04;56.93
48386;BME280;34644;47.964;7.982;2024-02-26T08:03:57;94766.97;;;17.03;57.05
48386;BME280;34644;47.964;7.982;2024-02-26T08:10:58;94756.34;;;17.03;57.04
48386;BME280;34644;47.964;7.982;2024-02-26T08:17:58;94773.06;;;17.04;57.15
48386;BME280;34644;47.964;7.982;2024-02-26T08:24:58;94752.56;;;17.04;57.04
48386;BME280;34644;47.964;7.982;2024-02-26T08:31:59;94749.44;;;17.02;57.24
48386;BME280;34644;47.964;7.982;2024-02-26T08:38:59;94741.47;;;17.02;57.28
48386;BME280;34644;47.964;7.982;2024-02-26T08:45:59;94766.19;;;17.03;57.34
48386;BME280;34644;47.964;7.982;2024-02-26T08:53:00;94775.28;;;17.02;57.40
48386;BME280;34644;47.964;7.982;2024-02-26T09:00:01;94773.72;;;17.00;57.58
48386;BME280;34644;47.964;7.982;2024-02-26T09:07:01;94762.28;;;17.00;57.49
48386;BME280;34644;47.964;7.982;2024-02-26T09:14:02;94771.06;;;17.00;57.50
48386;BME280;34644;47.964;7.982;2024-02-26T09:21:04;94791.25;;;17.02;57.56
48386;BME280;34644;47.964;7.982;2024-02-26T09:28:04;94801.41;;;16.99;57.56
48386;BME280;34644;47.964;7.982;2024-02-26T09:35:05;94788.91;;;17.00;57.58
48386;BME280;34644;47.964;7.982;2024-02-26T09:42:05;94798.75;;;16.99;57.63
48386;BME280;34644;47.964;7.982;2024-02-26T09:49:09;94797.22;;;16.98;57.55
48386;BME280;34644;47.964;7.982;2024-02-26T09:56:12;94807.84;;;16.98;57.58
48386;BME280;34644;47.964;7.982;2024-02-26T10:03:15;94804.88;;;17.00;57.70
48386;BME280;34644;47.964;7.982;2024-02-26T10:10:17;94814.72;;;16.99;57.58
48386;BME280;34644;47.964;7.982;2024-02-26T10:17:17;94821.16;;;16.98;57.59
48386;BME280;34644;47.964;7.982;2024-02-26T10:24:19;94834.16;;;17.00;57.60
48386;BME280;34644;47.964;7.982;2024-02-26T10:31:19;94816.59;;;16.99;57.68
48386;BME280;34644;47.964;7.982;2024-02-26T10:38:19;94813.19;;;16.98;57.99
48386;BME280;34644;47.964;7.982;2024-02-26T10:45:20;94823.81;;;16.98;58.30
48386;BME280;34644;47.964;7.982;2024-02-26T10:52:21;94837.75;;;16.95;58.65
48386;BME280;34644;47.964;7.982;2024-02-26T10:59:23;94849.94;;;16.96;58.56
48386;BME280;34644;47.964;7.982;2024-02-26T11:06:23;94848.09;;;16.97;58.70
48386;BME280;34644;47.964;7.982;2024-02-26T11:13:25;94848.41;;;16.95;58.83
48386;BME280;34644;47.964;7.982;2024-02-26T11:20:30;94847.28;;;16.96;58.93
48386;BME280;34644;47.964;7.982;2024-02-26T11:27:43;94840.88;;;16.97;58.85
48386;BME280;34644;47.964;7.982;2024-02-26T11:34:44;94834.78;;;16.97;58.89
48386;BME280;34644;47.964;7.982;2024-02-26T11:41:45;94826.00;;;16.96;58.89
48386;BME280;34644;47.964;7.982;2024-02-26T11:48:46;94821.47;;;16.97;58.87
48386;BME280;34644;47.964;7.982;2024-02-26T11:55:46;94834.78;;;16.97;58.98
48386;BME280;34644;47.964;7.982;2024-02-26T12:02:47;94820.69;;;16.96;59.02
48386;BME280;34644;47.964;7.982;2024-02-26T12:09:48;94821.47;;;16.97;58.96
48386;BME280;34644;47.964;7.982;2024-02-26T12:16:48;94828.34;;;16.98;58.97
48386;BME280;34644;47.964;7.982;2024-02-26T12:23:50;94838.97;;;16.98;58.96
48386;BME280;34644;47.964;7.982;2024-02-26T12:30:50;94837.91;;;16.99;58.94
48386;BME280;34644;47.964;7.982;2024-02-26T12:37:50;94829.47;;;16.97;58.97
48386;BME280;34644;47.964;7.982;2024-02-26T12:44:51;94832.88;;;16.97;59.08
48386;BME280;34644;47.964;7.982;2024-02-26T12:51:52;94835.25;;;16.99;59.11
48386;BME280;34644;47.964;7.982;2024-02-26T12:58:52;94825.69;;;16.98;59.31
48386;BME280;34644;47.964;7.982;2024-02-26T13:05:53;94830.22;;;16.97;59.50
48386;BME280;34644;47.964;7.982;2024-02-26T13:12:53;94830.69;;;16.99;59.45
48386;BME280;34644;47.964;7.982;2024-02-26T13:19:54;94829.91;;;16.99;59.44
48386;BME280;34644;47.964;7.982;2024-02-26T13:26:54;94827.56;;;16.97;59.58
48386;BME280;34644;47.964;7.982;2024-02-26T13:33:55;94831.81;;;16.98;59.54
48386;BME280;34644;47.964;7.982;2024-02-26T13:40:55;94829.91;;;16.99;59.61
48386;BME280;34644;47.964;7.982;2024-02-26T13:47:59;94836.00;;;16.99;59.53
48386;BME280;34644;47.964;7.982;2024-02-26T13:55:01;94836.81;;;17.00;59.50
48386;BME280;34644;47.964;7.982;2024-02-26T14:02:02;94834.91;;;17.00;59.46
48386;BME280;34644;47.964;7.982;2024-02-26T14:09:02;94838.03;;;17.03;59.49
48386;BME280;34644;47.964;7.982;2024-02-26T14:16:04;94830.06;;;17.03;59.49
48386;BME280;34644;47.964;7.982;2024-02-26T14:23:04;94826.31;;;17.04;59.41
48386;BME280;34644;47.964;7.982;2024-02-26T14:30:05;94831.31;;;17.05;59.35
48386;BME280;34644;47.964;7.982;2024-02-26T14:37:05;94831.38;;;17.26;53.65
48386;BME280;34644;47.964;7.982;2024-02-26T14:44:06;94845.94;;;17.29;52.53
48386;BME280;34644;47.964;7.982;2024-02-26T14:51:06;94845.94;;;17.29;52.28
48386;BME280;34644;47.964;7.982;2024-02-26T14:58:06;94840.06;;;17.06;55.22
48386;BME280;34644;47.964;7.982;2024-02-26T15:05:06;94849.47;;;17.03;55.86
48386;BME280;34644;47.964;7.982;2024-02-26T15:12:08;94867.31;;;17.03;56.54
48386;BME280;34644;47.964;7.982;2024-02-26T15:19:09;94864.66;;;17.03;57.16
48386;BME280;34644;47.964;7.982;2024-02-26T15:26:10;94869.19;;;17.02;57.34
48386;BME280;34644;47.964;7.982;2024-02-26T15:33:10;94867.31;;;17.03;57.56
48386;BME280;34644;47.964;7.982;2024-02-26T15:40:12;94868.88;;;17.04;57.83
48386;BME280;34644;47.964;7.982;2024-02-26T15:47:12;94882.97;;;17.04;57.89
48386;BME280;34644;47.964;7.982;2024-02-26T15:54:12;94894.41;;;17.05;58.09
48386;BME280;34644;47.964;7.982;2024-02-26T16:01:12;94906.28;;;17.07;57.97
48386;BME280;34644;47.964;7.982;2024-02-26T16:08:20;94921.47;;;17.07;57.98
48386;BME280;34644;47.964;7.982;2024-02-26T16:15:22;94932.91;;;17.07;58.06
48386;BME280;34644;47.964;7.982;2024-02-26T16:22:22;94934.47;;;17.08;57.97
48386;BME280;34644;47.964;7.982;2024-02-26T16:29:24;94954.66;;;17.09;57.97
48386;BME280;34644;47.964;7.982;2024-02-26T16:36:24;94954.66;;;17.09;57.89
48386;BME280;34644;47.964;7.982;2024-02-26T16:43:24;94974.09;;;17.10;57.93
48386;BME280;34644;47.964;7.982;2024-02-26T16:50:24;94978.28;;;17.20;54.24
48386;BME280;34644;47.964;7.982;2024-02-26T16:57:26;94985.81;;;17.09;55.29
48386;BME280;34644;47.964;7.982;2024-02-26T17:04:26;94980.50;;;17.09;56.23
48386;BME280;34644;47.964;7.982;2024-02-26T17:11:27;94996.16;;;17.10;56.75
48386;BME280;34644;47.964;7.982;2024-02-26T17:18:30;95013.69;;;17.11;57.34
48386;BME280;34644;47.964;7.982;2024-02-26T17:25:31;95017.13;;;17.12;57.65
48386;BME280;34644;47.964;7.982;2024-02-26T17:32:32;95026.69;;;17.13;58.11
48386;BME280;34644;47.964;7.982;2024-02-26T17:39:32;95037.81;;;17.15;58.27
48386;BME280;34644;47.964;7.982;2024-02-26T17:46:33;95050.34;;;17.14;58.58
48386;BME280;34644;47.964;7.982;2024-02-26T17:53:33;95057.50;;;17.14;58.68
48386;BME280;34644;47.964;7.982;2024-02-26T18:00:33;95071.63;;;17.14;58.87
48386;BME280;34644;47.964;7.982;2024-02-26T18:07:34;95073.19;;;17.15;59.08
48386;BME280;34644;47.964;7.982;2024-02-26T18:14:34;95079.31;;;17.16;59.01
48386;BME280;34644;47.964;7.982;2024-02-26T18:21:35;95084.63;;;17.16;59.14
48386;BME280;34644;47.964;7.982;2024-02-26T18:28:35;95100.59;;;17.16;59.08
48386;BME280;34644;47.964;7.982;2024-02-26T18:35:35;95109.50;;;17.20;56.88
48386;BME280;34644;47.964;7.982;2024-02-26T18:42:35;95112.66;;;17.22;52.48
48386;BME280;34644;47.964;7.982;2024-02-26T18:49:38;95130.34;;;17.18;55.03
48386;BME280;34644;47.964;7.982;2024-02-26T18:56:39;95148.50;;;17.16;55.88
48386;BME280;34644;47.964;7.982;2024-02-26T19:03:39;95152.25;;;17.15;56.27
48386;BME280;34644;47.964;7.982;2024-02-26T19:10:39;95156.81;;;17.14;56.67
48386;BME280;34644;47.964;7.982;2024-02-26T19:17:39;95164.00;;;17.14;56.82
48386;BME280;34644;47.964;7.982;2024-02-26T19:24:40;95174.34;;;17.15;57.14
48386;BME280;34644;47.964;7.982;2024-02-26T19:31:40;95193.47;;;17.17;57.06
48386;BME280;34644;47.964;7.982;2024-02-26T19:38:40;95194.53;;;17.16;57.20
48386;BME280;34644;47.964;7.982;2024-02-26T19:45:41;95197.97;;;17.17;57.15
48386;BME280;34644;47.964;7.982;2024-02-26T19:52:41;95211.78;;;17.19;57.29
48386;BME280;34644;47.964;7.982;2024-02-26T19:59:42;95237.59;;;17.18;57.29
48386;BME280;34644;47.964;7.982;2024-02-26T20:06:42;95231.19;;;17.20;57.70
48386;BME280;34644;47.964;7.982;2024-02-26T20:13:42;95234.63;;;17.20;57.61
48386;BME280;34644;47.964;7.982;2024-02-26T20:20:42;95241.53;;;17.21;57.58
48386;BME280;34644;47.964;7.982;2024-02-26T20:27:43;95264.41;;;17.22;57.69
48386;BME280;34644;47.964;7.982;2024-02-26T20:34:43;95262.53;;;17.23;57.52
48386;BME280;34644;47.964;7.982;2024-02-26T20:41:44;95287.28;;;17.23;57.67
48386;BME280;34644;47.964;7.982;2024-02-26T20:48:44;95287.28;;;17.23;57.58
48386;BME280;34644;47.964;7.982;2024-02-26T20:55:44;95303.25;;;17.23;57.56
48386;BME280;34644;47.964;7.982;2024-02-26T21:02:45;95330.66;;;17.24;57.61
48386;BME280;34644;47.964;7.982;2024-02-26T21:09:45;95336.78;;;17.24;57.91
48386;BME280;34644;47.964;7.982;2024-02-26T21:16:45;95362.31;;;17.25;58.02
48386;BME280;34644;47.964;7.982;2024-02-26T21:23:45;95372.97;;;17.25;58.11
48386;BME280;34644;47.964;7.982;2024-02-26T21:30:45;95370.78;;;17.27;58.19
48386;BME280;34644;47.964;7.982;2024-02-26T21:37:46;95379.84;;;17.26;58.33
48386;BME280;34644;47.964;7.982;2024-02-26T21:44:46;95378.00;;;17.27;58.55
48386;BME280;34644;47.964;7.982;2024-02-26T21:51:46;95379.84;;;17.26;58.68
48386;BME280;34644;47.964;7.982;2024-02-26T21:58:48;95389.09;;;17.29;58.74
48386;BME280;34644;47.964;7.982;2024-02-26T22:05:49;95397.88;;;17.29;58.74
48386;BME280;34644;47.964;7.982;2024-02-26T22:12:50;95401.00;;;17.31;58.76
48386;BME280;34644;47.964;7.982;2024-02-26T22:19:51;95408.22;;;17.31;58.94
48386;BME280;34644;47.964;7.982;2024-02-26T22:26:51;95409.81;;;17.32;58.79
48386;BME280;34644;47.964;7.982;2024-02-26T22:33:52;95419.34;;;17.33;58.91
48386;BME280;34644;47.964;7.982;2024-02-26T22:40:52;95430.00;;;17.33;58.82
48386;BME280;34644;47.964;7.982;2024-02-26T22:47:52;95429.69;;;17.34;58.83
48386;BME280;34644;47.964;7.982;2024-02-26T22:54:53;95440.34;;;17.34;59.01
48386;BME280;34644;47.964;7.982;2024-02-26T23:01:53;95437.38;;;17.36;59.17
48386;BME280;34644;47.964;7.982;2024-02-26T23:08:53;95471.22;;;17.35;58.90
48386;BME280;34644;47.964;7.982;2024-02-26T23:15:54;95447.72;;;17.38;58.96
48386;BME280;34644;47.964;7.982;2024-02-26T23:22:54;95456.81;;;17.36;59.05
48386;BME280;34644;47.964;7.982;2024-02-26T23:29:54;95469.03;;;17.38;59.18
48386;BME280;34644;47.964;7.982;2024-02-26T23:36:55;95461.34;;;17.36;59.29
48386;BME280;34644;47.964;7.982;2024-02-26T23:43:55;95458.38;;;17.38;59.26
48386;BME280;34644;47.964;7.982;2024-02-26T23:50:55;95470.63;;;17.39;59.25
48386;BME280;34644;47.964;7.982;2024-02-26T23:57:56;95481.25;;;17.39;59.29
